createdAt,value
2023-05-10T00:00:45.810Z,6.15
2023-05-10T00:03:12.408Z,5.20
2023-05-10T00:05:39.088Z,5.90
2023-05-10T00:08:05.808Z,5.22
2023-05-10T00:10:32.393Z,5.22
2023-05-10T00:12:59.229Z,4.95
2023-05-10T00:15:25.782Z,4.63
2023-05-10T00:17:52.410Z,4.75
2023-05-10T00:20:19.247Z,4.55
2023-05-10T00:22:45.981Z,4.03
2023-05-10T00:25:12.539Z,4.00
2023-05-10T00:27:39.228Z,3.67
2023-05-10T00:30:07.225Z,3.60
2023-05-10T00:32:33.876Z,3.60
2023-05-10T00:35:00.501Z,3.33
2023-05-10T00:37:27.126Z,3.38
2023-05-10T00:39:54.190Z,2.83
2023-05-10T00:42:20.811Z,3.00
2023-05-10T00:44:47.735Z,2.67
2023-05-10T00:47:14.512Z,2.83
2023-05-10T00:49:41.826Z,2.53
2023-05-10T00:52:09.346Z,2.35
2023-05-10T00:54:35.977Z,2.25
2023-05-10T00:57:02.598Z,2.28
2023-05-10T00:59:29.970Z,2.17
2023-05-10T01:01:56.609Z,2.00
2023-05-10T01:04:26.558Z,2.03
2023-05-10T01:06:54.629Z,2.15
2023-05-10T01:09:27.318Z,1.95
2023-05-10T01:11:54.726Z,1.80
2023-05-10T01:14:21.464Z,1.45
2023-05-10T01:16:50.326Z,1.50
2023-05-10T01:19:25.944Z,1.85
2023-05-10T01:22:30.817Z,1.52
2023-05-10T01:25:32.784Z,1.58
2023-05-10T01:28:17.858Z,1.30
2023-05-10T01:30:53.660Z,1.40
2023-05-10T01:33:30.709Z,1.23
2023-05-10T01:36:27.101Z,1.45
2023-05-10T01:41:49.648Z,0.90
2023-05-10T01:44:22.042Z,1.13
2023-05-10T01:47:05.408Z,0.98
2023-05-10T01:49:35.665Z,1.02
2023-05-10T01:52:09.603Z,1.00
2023-05-10T01:54:39.469Z,0.90
2023-05-10T01:57:08.694Z,1.02
2023-05-10T01:59:37.997Z,0.70
2023-05-10T02:02:06.504Z,0.75
2023-05-10T02:04:36.197Z,0.80
2023-05-10T02:07:03.287Z,0.70
2023-05-10T02:09:33.051Z,0.50
2023-05-10T02:12:03.583Z,0.98
2023-05-10T02:14:33.128Z,0.82
2023-05-10T02:17:01.273Z,0.65
2023-05-10T02:19:29.898Z,0.52
2023-05-10T02:21:57.277Z,0.50
2023-05-10T02:24:26.109Z,0.70
2023-05-10T02:26:56.694Z,0.60
2023-05-10T02:29:25.842Z,0.40
2023-05-10T02:31:53.671Z,0.60
2023-05-10T02:34:22.568Z,0.52
2023-05-10T02:36:51.665Z,0.40
2023-05-10T02:39:20.306Z,0.60
2023-05-10T02:41:49.151Z,0.40
2023-05-10T02:44:18.807Z,0.47
2023-05-10T02:46:46.180Z,0.30
2023-05-10T02:49:12.974Z,0.40
2023-05-10T02:51:45.876Z,0.40
2023-05-10T02:54:17.618Z,0.70
2023-05-10T02:56:51.452Z,0.43
2023-05-10T02:59:18.172Z,0.32
2023-05-10T03:01:44.827Z,0.60
2023-05-10T03:04:11.745Z,0.82
2023-05-10T03:06:38.705Z,0.57
2023-05-10T03:09:05.555Z,0.43
2023-05-10T03:11:48.350Z,1.38
2023-05-10T03:14:39.786Z,0.60
2023-05-10T03:17:31.044Z,0.88
2023-05-10T03:20:04.250Z,0.60
2023-05-10T03:22:39.341Z,1.00
2023-05-10T03:25:07.906Z,2.90
2023-05-10T03:27:36.426Z,3.30
2023-05-10T03:30:04.087Z,4.00
2023-05-10T03:32:32.924Z,3.58
2023-05-10T03:34:59.561Z,4.63
2023-05-10T03:37:26.116Z,5.45
2023-05-10T03:39:52.712Z,7.10
2023-05-10T03:42:19.264Z,6.70
2023-05-10T03:47:12.336Z,6.80
2023-05-10T03:49:38.900Z,6.65
2023-05-10T03:52:06.296Z,7.85
2023-05-10T03:54:33.268Z,7.97
2023-05-10T03:57:01.307Z,7.72
2023-05-10T03:59:27.992Z,9.02
2023-05-10T04:01:54.667Z,9.25
2023-05-10T04:04:22.437Z,12.30
2023-05-10T04:06:48.982Z,11.95
2023-05-10T04:11:42.884Z,11.82
2023-05-10T04:14:09.699Z,11.60
2023-05-10T04:16:36.375Z,11.02
2023-05-10T04:19:05.796Z,10.20
2023-05-10T04:21:32.376Z,10.07
2023-05-10T04:23:58.917Z,10.43
2023-05-10T04:28:53.145Z,9.00
2023-05-10T04:31:19.865Z,8.10
2023-05-10T04:33:46.545Z,7.50
2023-05-10T04:36:13.158Z,7.35
2023-05-10T04:38:39.699Z,7.38
2023-05-10T04:41:11.093Z,7.43
2023-05-10T04:43:38.304Z,6.20
2023-05-10T04:46:06.141Z,6.45
2023-05-10T04:48:32.807Z,5.70
2023-05-10T04:50:59.452Z,5.28
2023-05-10T04:53:26.088Z,5.22
2023-05-10T04:55:52.763Z,4.90
2023-05-10T04:58:19.384Z,5.85
2023-05-10T05:00:46.023Z,5.57
2023-05-10T05:03:12.710Z,5.13
2023-05-10T05:05:39.318Z,4.47
2023-05-10T05:08:05.942Z,4.78
2023-05-10T05:10:32.527Z,4.50
2023-05-10T05:12:59.194Z,4.70
2023-05-10T05:15:25.817Z,3.88
2023-05-10T05:17:52.825Z,6.20
2023-05-10T05:20:20.075Z,5.28
2023-05-10T05:22:46.779Z,6.57
2023-05-10T05:25:13.696Z,4.85
2023-05-10T05:27:40.355Z,4.25
2023-05-10T05:30:08.895Z,5.20
2023-05-10T05:32:35.678Z,8.43
2023-05-10T05:35:02.307Z,6.63
2023-05-10T05:37:28.914Z,5.68
2023-05-10T05:39:56.052Z,6.20
2023-05-10T05:42:22.704Z,5.63
2023-05-10T05:44:49.343Z,5.45
2023-05-10T05:47:15.999Z,5.00
2023-05-10T05:49:42.565Z,4.25
2023-05-10T05:52:09.137Z,4.35
2023-05-10T05:54:35.774Z,10.68
2023-05-10T05:57:02.329Z,6.50
2023-05-10T05:59:29.011Z,6.40
2023-05-10T06:01:55.780Z,5.35
2023-05-10T06:04:22.447Z,4.90
2023-05-10T06:06:49.274Z,5.30
2023-05-10T06:09:17.074Z,4.60
2023-05-10T06:11:43.876Z,3.83
2023-05-10T06:14:10.576Z,4.05
2023-05-10T06:16:37.227Z,3.47
2023-05-10T06:19:03.851Z,3.13
2023-05-10T06:21:31.056Z,3.28
2023-05-10T06:23:57.664Z,3.08
2023-05-10T06:26:24.516Z,2.92
2023-05-10T06:28:51.118Z,2.83
2023-05-10T06:31:17.949Z,2.80
2023-05-10T06:33:44.569Z,2.50
2023-05-10T06:36:11.157Z,2.30
2023-05-10T06:38:38.220Z,2.17
2023-05-10T06:41:04.842Z,1.95
2023-05-10T06:43:31.397Z,2.10
2023-05-10T06:45:58.413Z,1.80
2023-05-10T06:48:25.001Z,1.85
2023-05-10T06:50:51.539Z,2.00
2023-05-10T06:53:18.152Z,1.75
2023-05-10T06:55:44.838Z,1.55
2023-05-10T06:58:11.493Z,1.27
2023-05-10T07:00:41.622Z,1.42
2023-05-10T07:03:08.408Z,1.25
2023-05-10T07:05:35.442Z,1.13
2023-05-10T07:08:02.611Z,1.02
2023-05-10T07:10:29.355Z,1.20
2023-05-10T07:12:56.056Z,1.02
2023-05-10T07:15:22.933Z,1.50
2023-05-10T07:17:49.674Z,1.63
2023-05-10T07:20:16.610Z,1.95
2023-05-10T07:22:43.280Z,1.20
2023-05-10T07:25:10.111Z,1.38
2023-05-10T07:27:36.882Z,1.58
2023-05-10T07:30:03.616Z,1.35
2023-05-10T07:32:30.335Z,1.33
2023-05-10T07:34:56.984Z,1.38
2023-05-10T07:37:23.621Z,1.77
2023-05-10T07:39:50.206Z,1.50
2023-05-10T07:42:16.835Z,7.47
2023-05-10T07:44:44.272Z,3.63
2023-05-10T07:47:10.838Z,3.15
2023-05-10T07:49:37.432Z,3.90
2023-05-10T07:52:04.502Z,3.22
2023-05-10T07:54:31.136Z,4.30
2023-05-10T07:56:57.663Z,3.42
2023-05-10T07:59:24.301Z,2.60
2023-05-10T08:01:50.893Z,3.15
2023-05-10T08:04:17.558Z,24.40
2023-05-10T08:06:44.284Z,9.52
2023-05-10T08:09:11.951Z,7.82
2023-05-10T08:11:38.591Z,8.02
2023-05-10T08:14:05.386Z,7.20
2023-05-10T08:16:33.301Z,6.00
2023-05-10T08:19:00.041Z,5.68
2023-05-10T08:21:27.244Z,5.00
2023-05-10T08:23:53.886Z,5.05
2023-05-10T08:26:22.409Z,5.03
2023-05-10T08:28:49.026Z,5.20
2023-05-10T08:31:16.542Z,4.88
2023-05-10T08:33:44.757Z,7.43
2023-05-10T08:36:11.556Z,5.93
2023-05-10T08:38:38.882Z,4.85
2023-05-10T08:41:06.343Z,4.25
2023-05-10T08:43:33.223Z,4.45
2023-05-10T08:46:04.702Z,4.05
2023-05-10T08:48:32.182Z,4.40
2023-05-10T08:51:01.698Z,3.83
2023-05-10T08:53:31.457Z,4.10
2023-05-10T08:55:58.115Z,3.65
2023-05-10T08:58:24.795Z,3.28
2023-05-10T09:00:54.073Z,9.70
2023-05-10T09:03:20.870Z,5.40
2023-05-10T09:05:47.929Z,5.30
2023-05-10T09:08:17.190Z,5.45
2023-05-10T09:10:45.656Z,4.85
2023-05-10T09:13:12.893Z,4.63
2023-05-10T09:15:39.824Z,4.07
2023-05-10T09:18:06.519Z,4.18
2023-05-10T09:20:33.213Z,3.67
2023-05-10T09:22:59.743Z,3.13
2023-05-10T09:25:26.348Z,10.68
2023-05-10T09:27:53.565Z,7.43
2023-05-10T09:30:27.895Z,6.57
2023-05-10T09:32:55.749Z,5.70
2023-05-10T09:35:27.077Z,5.50
2023-05-10T09:37:57.467Z,6.05
2023-05-10T09:40:26.007Z,4.75
2023-05-10T09:42:56.431Z,5.20
2023-05-10T09:45:24.745Z,5.18
2023-05-10T09:47:51.529Z,5.45
2023-05-10T09:50:18.299Z,6.32
2023-05-10T09:52:54.424Z,7.57
2023-05-10T09:55:22.771Z,5.53
2023-05-10T09:57:50.438Z,5.30
2023-05-10T10:00:21.007Z,5.85
2023-05-10T10:02:55.264Z,6.18
2023-05-10T10:05:22.020Z,5.28
2023-05-10T10:07:50.257Z,5.55
2023-05-10T10:10:17.274Z,4.75
2023-05-10T10:12:44.041Z,5.10
2023-05-10T10:15:11.468Z,4.88
2023-05-10T10:17:39.518Z,3.22
2023-05-10T10:20:06.835Z,3.78
2023-05-10T10:22:33.505Z,3.53
2023-05-10T10:25:00.513Z,3.88
2023-05-10T10:27:53.559Z,3.60
2023-05-10T10:30:26.196Z,3.08
2023-05-10T10:33:29.125Z,2.50
2023-05-10T10:35:59.102Z,2.40
2023-05-10T10:38:26.124Z,2.67
2023-05-10T10:41:27.804Z,2.42
2023-05-10T10:44:34.909Z,2.38
2023-05-10T10:47:09.406Z,2.58
2023-05-10T10:49:45.008Z,2.05
2023-05-10T10:52:18.772Z,1.98
2023-05-10T10:54:57.971Z,1.95
2023-05-10T10:57:27.430Z,1.58
2023-05-10T11:00:19.186Z,1.80
2023-05-10T11:02:47.273Z,1.38
2023-05-10T11:05:37.348Z,1.52
2023-05-10T11:08:26.705Z,1.40
2023-05-10T11:10:53.336Z,1.73
2023-05-10T11:13:31.412Z,1.42
2023-05-10T11:15:58.787Z,1.15
2023-05-10T11:18:29.597Z,1.35
2023-05-10T11:20:57.687Z,1.30
2023-05-10T11:23:24.789Z,1.85
2023-05-10T11:25:51.328Z,2.78
2023-05-10T11:28:20.246Z,1.83
2023-05-10T11:30:47.143Z,2.05
2023-05-10T11:33:18.352Z,1.58
2023-05-10T11:35:45.082Z,1.77
2023-05-10T11:38:12.880Z,1.35
2023-05-10T11:40:40.783Z,1.33
2023-05-10T11:43:10.091Z,1.25
2023-05-10T11:45:36.771Z,1.70
2023-05-10T11:48:03.903Z,1.20
2023-05-10T11:50:30.691Z,1.10
2023-05-10T11:52:57.946Z,1.20
2023-05-10T11:55:27.338Z,1.00
2023-05-10T11:58:01.560Z,1.25
2023-05-10T12:00:28.557Z,1.10
2023-05-10T12:02:55.319Z,1.00
2023-05-10T12:05:22.595Z,0.90
2023-05-10T12:07:49.105Z,0.93
2023-05-10T12:10:16.470Z,1.20
2023-05-10T12:12:50.665Z,0.93
2023-05-10T12:15:25.726Z,1.13
2023-05-10T12:17:52.483Z,1.02
2023-05-10T12:20:28.688Z,0.93
2023-05-10T12:23:00.187Z,1.20
2023-05-10T12:25:31.728Z,1.00
2023-05-10T12:28:01.834Z,0.77
2023-05-10T12:30:33.714Z,1.02
2023-05-10T12:33:12.126Z,1.00
2023-05-10T12:38:39.392Z,1.00
2023-05-10T12:41:11.022Z,0.82
2023-05-10T12:43:38.994Z,0.82
2023-05-10T12:46:09.925Z,0.82
2023-05-10T12:48:38.218Z,0.93
2023-05-10T12:51:05.826Z,1.00
2023-05-10T12:53:32.489Z,0.77
2023-05-10T12:55:59.104Z,0.95
2023-05-10T12:58:34.964Z,0.90
2023-05-10T13:01:02.846Z,1.00
2023-05-10T13:03:29.489Z,0.90
2023-05-10T13:05:56.058Z,0.70
2023-05-10T13:08:22.698Z,0.93
2023-05-10T13:10:49.791Z,0.68
2023-05-10T13:13:16.502Z,0.63
2023-05-10T13:15:43.129Z,0.70
2023-05-10T13:18:09.746Z,0.63
2023-05-10T13:20:36.645Z,0.73
2023-05-10T13:23:03.669Z,0.50
2023-05-10T13:25:30.930Z,0.60
2023-05-10T13:27:57.501Z,0.90
2023-05-10T13:30:24.951Z,0.57
2023-05-10T13:32:51.785Z,0.52
2023-05-10T13:35:18.427Z,0.68
2023-05-10T13:37:45.020Z,0.63
2023-05-10T13:40:11.825Z,0.52
2023-05-10T13:42:38.563Z,0.80
2023-05-10T13:45:05.727Z,0.52
2023-05-10T13:47:32.290Z,0.60
2023-05-10T13:49:59.444Z,0.50
2023-05-10T13:52:27.568Z,0.60
2023-05-10T13:54:56.182Z,0.50
2023-05-10T13:57:24.075Z,0.60
2023-05-10T13:59:51.283Z,0.85
2023-05-10T14:02:17.961Z,0.57
2023-05-10T14:04:44.567Z,0.50
2023-05-10T14:07:11.163Z,0.60
2023-05-10T14:09:37.743Z,0.60
2023-05-10T14:12:04.619Z,0.80
2023-05-10T14:14:31.300Z,0.77
2023-05-10T14:16:57.873Z,0.60
2023-05-10T14:19:24.497Z,0.40
2023-05-10T14:21:52.937Z,0.52
2023-05-10T14:24:19.530Z,0.52
2023-05-10T14:26:46.143Z,0.50
2023-05-10T14:29:12.850Z,0.50
2023-05-10T14:31:39.648Z,0.65
2023-05-10T14:34:06.707Z,0.50
2023-05-10T14:36:33.460Z,0.43
2023-05-10T14:39:00.127Z,0.63
2023-05-10T14:41:26.663Z,0.55
2023-05-10T14:43:53.591Z,0.43
2023-05-10T14:46:20.708Z,0.52
2023-05-10T14:48:47.386Z,0.40
2023-05-10T14:51:14.382Z,0.60
2023-05-10T14:53:41.078Z,0.50
2023-05-10T14:56:08.044Z,0.40
2023-05-10T14:58:34.710Z,0.50
2023-05-10T15:01:01.774Z,0.52
2023-05-10T15:03:29.155Z,0.80
2023-05-10T15:05:58.552Z,0.80
2023-05-10T15:08:25.671Z,1.00
2023-05-10T15:10:52.745Z,0.75
2023-05-10T15:13:19.305Z,0.73
2023-05-10T15:15:45.913Z,0.90
2023-05-10T15:18:12.709Z,0.68
2023-05-10T15:20:39.480Z,1.17
2023-05-10T15:23:06.029Z,3.47
2023-05-10T15:25:35.209Z,3.03
2023-05-10T15:28:03.631Z,2.13
2023-05-10T15:30:30.382Z,2.40
2023-05-10T15:32:57.496Z,2.33
2023-05-10T15:35:24.273Z,2.30
2023-05-10T15:49:27.953Z,3.95
2023-05-10T15:53:37.577Z,3.53
2023-05-10T15:56:04.667Z,3.60
2023-05-10T15:58:31.763Z,6.85
2023-05-10T16:00:58.622Z,5.43
2023-05-10T16:03:25.404Z,5.03
2023-05-10T16:05:52.188Z,4.93
2023-05-10T16:08:18.913Z,4.72
2023-05-10T16:10:46.011Z,4.30
2023-05-10T16:13:15.146Z,4.22
2023-05-10T16:15:42.017Z,4.00
2023-05-10T16:18:09.495Z,4.18
2023-05-10T16:20:36.825Z,3.42
2023-05-10T16:23:05.852Z,9.38
2023-05-10T16:25:33.199Z,6.45
2023-05-10T16:28:00.706Z,5.53
2023-05-10T16:30:29.628Z,5.03
2023-05-10T16:33:01.076Z,4.95
2023-05-10T16:35:29.935Z,4.57
2023-05-10T16:37:57.440Z,4.28
2023-05-10T16:40:24.309Z,4.55
2023-05-10T16:42:51.080Z,4.50
2023-05-10T16:45:18.176Z,3.92
2023-05-10T16:47:45.451Z,3.70
2023-05-10T16:50:12.542Z,3.60
2023-05-10T16:52:39.653Z,3.35
2023-05-10T16:55:06.856Z,4.38
2023-05-10T16:57:33.649Z,3.85
2023-05-10T17:00:00.688Z,4.43
2023-05-10T17:02:27.944Z,3.88
2023-05-10T17:04:56.168Z,3.25
2023-05-10T17:07:25.560Z,3.78
2023-05-10T17:09:53.219Z,3.25
2023-05-10T17:12:19.993Z,2.80
2023-05-10T17:14:47.439Z,2.80
2023-05-10T17:17:14.320Z,2.70
2023-05-10T17:19:44.941Z,3.10
2023-05-10T17:22:13.540Z,2.97
2023-05-10T17:24:40.445Z,2.90
2023-05-10T17:27:07.160Z,2.83
2023-05-10T17:29:33.981Z,2.15
2023-05-10T17:32:00.869Z,2.42
2023-05-10T17:34:27.806Z,2.25
2023-05-10T17:36:54.551Z,2.00
2023-05-10T17:39:21.429Z,2.10
2023-05-10T17:41:48.251Z,2.00
2023-05-10T17:44:15.141Z,1.92
2023-05-10T17:46:41.933Z,1.90
2023-05-10T17:49:08.920Z,1.95
2023-05-10T17:51:35.681Z,1.60
2023-05-10T17:54:02.532Z,1.60
2023-05-10T17:56:29.785Z,1.42
2023-05-10T17:58:56.627Z,1.60
2023-05-10T18:01:23.413Z,1.50
2023-05-10T18:03:51.945Z,1.45
2023-05-10T18:06:18.744Z,1.55
2023-05-10T18:08:45.630Z,1.33
2023-05-10T18:11:12.386Z,1.27
2023-05-10T18:13:39.226Z,1.20
2023-05-10T18:16:08.759Z,1.08
2023-05-10T18:18:35.814Z,0.88
2023-05-10T18:21:03.781Z,1.10
2023-05-10T18:23:30.745Z,1.02
2023-05-10T18:25:58.121Z,0.85
2023-05-10T18:28:24.918Z,1.00
2023-05-10T18:30:51.921Z,1.17
2023-05-10T18:33:19.052Z,1.10
2023-05-10T18:35:46.610Z,1.00
2023-05-10T18:38:14.049Z,0.88
2023-05-10T18:40:41.750Z,0.80
2023-05-10T18:43:09.019Z,0.90
2023-05-10T18:45:35.788Z,0.75
2023-05-10T18:48:03.070Z,0.80
2023-05-10T18:50:29.971Z,0.73
2023-05-10T18:52:56.960Z,0.80
2023-05-10T18:55:26.899Z,0.73
2023-05-10T18:57:53.885Z,0.77
2023-05-10T19:00:20.789Z,0.70
2023-05-10T19:02:47.905Z,0.80
2023-05-10T19:05:15.775Z,0.77
2023-05-10T19:07:43.990Z,1.33
2023-05-10T19:10:13.045Z,0.75
2023-05-10T19:12:41.747Z,0.80
2023-05-10T19:15:09.174Z,0.60
2023-05-10T19:17:37.055Z,0.68
2023-05-10T19:20:05.925Z,0.55
2023-05-10T19:22:45.380Z,0.75
2023-05-10T19:25:21.012Z,1.50
2023-05-10T19:27:47.949Z,1.42
2023-05-10T19:30:14.854Z,1.35
2023-05-10T19:32:44.289Z,1.13
2023-05-10T19:35:12.897Z,1.10
2023-05-10T19:37:39.725Z,1.25
2023-05-10T19:40:07.185Z,3.03
2023-05-10T19:42:33.957Z,484.33
2023-05-10T19:45:01.388Z,128.07
2023-05-10T19:47:28.320Z,233.30
2023-05-10T19:49:55.171Z,270.25
2023-05-10T19:52:22.863Z,282.25
2023-05-10T19:54:49.627Z,245.00
2023-05-10T19:57:16.627Z,248.80
2023-05-10T19:59:43.436Z,209.23
2023-05-10T20:02:28.683Z,196.23
2023-05-10T20:04:55.755Z,200.57
2023-05-10T20:07:22.517Z,192.57
2023-05-10T20:09:49.676Z,170.68
2023-05-10T20:12:16.518Z,165.77
2023-05-10T20:14:43.281Z,161.95
2023-05-10T20:17:10.097Z,159.25
2023-05-10T20:19:37.138Z,141.63
2023-05-10T20:22:05.477Z,128.90
2023-05-10T20:24:32.282Z,131.40
2023-05-10T20:26:59.032Z,122.40
2023-05-10T20:29:26.256Z,116.00
2023-05-10T20:31:53.148Z,111.80
2023-05-10T20:34:20.063Z,107.32
2023-05-10T20:36:46.878Z,100.38
2023-05-10T20:39:14.316Z,98.90
2023-05-10T20:41:41.116Z,90.72
2023-05-10T20:44:08.133Z,85.18
2023-05-10T20:46:35.179Z,81.72
2023-05-10T20:49:02.630Z,79.18
2023-05-10T20:51:30.513Z,68.80
2023-05-10T20:53:57.971Z,71.30
2023-05-10T20:56:24.765Z,62.83
2023-05-10T20:58:51.488Z,60.72
2023-05-10T21:01:18.314Z,57.28
2023-05-10T21:03:45.237Z,57.00
2023-05-10T21:06:11.983Z,53.95
2023-05-10T21:08:38.727Z,51.75
2023-05-10T21:11:05.832Z,50.53
2023-05-10T21:13:33.288Z,45.78
2023-05-10T21:16:00.534Z,45.90
2023-05-10T21:18:27.486Z,46.53
2023-05-10T21:20:54.427Z,41.60
2023-05-10T21:23:21.243Z,40.83
2023-05-10T21:25:48.000Z,38.13
2023-05-10T21:28:14.865Z,39.58
2023-05-10T21:30:41.620Z,36.83
2023-05-10T21:33:08.503Z,33.88
2023-05-10T21:35:35.342Z,30.90
2023-05-10T21:38:02.282Z,29.70
2023-05-10T21:40:29.088Z,29.27
2023-05-10T21:42:55.934Z,26.17
2023-05-10T21:45:22.844Z,25.25
2023-05-10T21:47:49.927Z,61.17
2023-05-10T21:50:17.024Z,248.50
2023-05-10T21:52:44.130Z,134.52
2023-05-10T21:55:10.882Z,219.80
2023-05-10T21:57:37.668Z,262.23
2023-05-10T22:00:05.038Z,263.77
2023-05-10T22:02:32.003Z,256.52
2023-05-10T22:04:58.835Z,257.58
2023-05-10T22:07:25.672Z,228.02
2023-05-10T22:09:52.463Z,223.27
2023-05-10T22:12:19.208Z,209.57
2023-05-10T22:14:47.458Z,198.82
2023-05-10T22:17:15.525Z,173.80
2023-05-10T22:19:42.511Z,182.80
2023-05-10T22:22:09.499Z,162.15
2023-05-10T22:24:37.089Z,163.88
2023-05-10T22:27:04.906Z,149.23
2023-05-10T22:29:31.829Z,140.23
2023-05-10T22:31:58.998Z,152.23
2023-05-10T22:34:25.814Z,123.88
2023-05-10T22:36:52.589Z,122.55
2023-05-10T22:39:19.367Z,111.07
2023-05-10T22:41:46.884Z,110.75
2023-05-10T22:44:13.611Z,110.97
2023-05-10T22:46:40.515Z,98.28
2023-05-10T22:49:07.538Z,101.65
2023-05-10T22:51:34.897Z,94.95
2023-05-10T22:54:01.646Z,92.80
2023-05-10T22:56:28.550Z,84.35
2023-05-10T22:58:57.166Z,79.90
2023-05-10T23:01:24.056Z,70.82
2023-05-10T23:03:51.184Z,67.88
2023-05-10T23:06:18.596Z,68.63
2023-05-10T23:08:45.430Z,65.30
2023-05-10T23:11:12.778Z,65.85
2023-05-10T23:13:39.549Z,66.65
2023-05-10T23:16:07.147Z,55.20
2023-05-10T23:18:34.029Z,51.88
2023-05-10T23:21:01.132Z,49.78
2023-05-10T23:23:27.988Z,48.58
2023-05-10T23:25:54.972Z,45.58
2023-05-10T23:28:21.877Z,44.70
2023-05-10T23:30:55.633Z,41.42
2023-05-10T23:33:23.297Z,39.38
2023-05-10T23:35:50.563Z,40.72
2023-05-10T23:38:17.527Z,37.00
2023-05-10T23:40:48.552Z,36.30
2023-05-10T23:43:16.402Z,33.53
2023-05-10T23:45:43.821Z,31.02
2023-05-10T23:48:11.137Z,30.98
2023-05-10T23:50:37.842Z,29.33
2023-05-10T23:53:04.703Z,27.55
2023-05-10T23:55:31.539Z,25.63
2023-05-10T23:57:58.401Z,24.88
